createdAt,value
2018-07-07T00:00:44.374Z,18.00
2018-07-07T00:03:12.440Z,18.00
2018-07-07T00:05:40.556Z,18.10
2018-07-07T00:08:08.638Z,18.00
2018-07-07T00:10:36.756Z,18.00
2018-07-07T00:13:04.895Z,18.10
2018-07-07T00:15:33.022Z,18.10
2018-07-07T00:18:01.111Z,18.10
2018-07-07T00:20:29.195Z,17.90
2018-07-07T00:22:57.302Z,18.00
2018-07-07T00:25:25.394Z,17.90
2018-07-07T00:27:53.482Z,18.00
2018-07-07T00:30:21.571Z,17.90
2018-07-07T00:32:49.662Z,18.00
2018-07-07T00:35:17.738Z,18.00
2018-07-07T00:37:45.847Z,17.90
2018-07-07T00:40:13.930Z,18.00
2018-07-07T00:42:42.011Z,18.00
2018-07-07T00:45:10.107Z,18.00
2018-07-07T00:47:38.194Z,18.00
2018-07-07T00:50:06.291Z,17.90
2018-07-07T00:52:34.392Z,17.70
2018-07-07T00:55:02.478Z,17.80
2018-07-07T00:57:30.569Z,17.80
2018-07-07T00:59:58.691Z,17.80
2018-07-07T01:04:54.601Z,17.70
2018-07-07T01:07:22.683Z,17.80
2018-07-07T01:09:50.771Z,17.70
2018-07-07T01:12:18.865Z,17.60
2018-07-07T01:14:46.984Z,17.60
2018-07-07T01:17:15.071Z,17.60
2018-07-07T01:19:43.163Z,17.70
2018-07-07T01:22:11.276Z,17.70
2018-07-07T01:24:39.682Z,17.60
2018-07-07T01:27:07.778Z,17.60
2018-07-07T01:29:35.912Z,17.50
2018-07-07T01:32:04.041Z,17.40
2018-07-07T01:34:32.126Z,17.30
2018-07-07T01:37:00.231Z,17.40
2018-07-07T01:39:28.321Z,17.30
2018-07-07T01:41:56.775Z,17.30
2018-07-07T01:44:24.870Z,17.00
2018-07-07T01:46:52.967Z,16.90
2018-07-07T01:49:21.083Z,16.80
2018-07-07T01:51:49.192Z,16.80
2018-07-07T01:54:17.273Z,16.90
2018-07-07T01:56:45.374Z,16.80
2018-07-07T01:59:13.464Z,16.70
2018-07-07T02:01:41.535Z,16.70
2018-07-07T02:04:09.631Z,16.70
2018-07-07T02:06:37.718Z,16.80
2018-07-07T02:09:05.858Z,16.80
2018-07-07T02:11:33.943Z,16.80
2018-07-07T02:14:02.039Z,16.80
2018-07-07T02:16:30.127Z,16.70
2018-07-07T02:18:58.212Z,16.70
2018-07-07T02:21:26.303Z,16.90
2018-07-07T02:23:54.386Z,17.00
2018-07-07T02:26:22.483Z,16.90
2018-07-07T02:31:18.426Z,17.10
2018-07-07T02:33:46.657Z,17.10
2018-07-07T02:36:14.740Z,17.00
2018-07-07T02:38:42.836Z,16.90
2018-07-07T02:41:10.959Z,17.00
2018-07-07T02:43:39.047Z,16.90
2018-07-07T02:46:07.163Z,16.90
2018-07-07T02:48:35.218Z,16.90
2018-07-07T02:51:03.307Z,16.90
2018-07-07T02:55:59.233Z,17.00
2018-07-07T02:58:27.337Z,17.00
2018-07-07T03:00:55.463Z,16.90
2018-07-07T03:03:23.644Z,16.80
2018-07-07T03:05:51.650Z,16.80
2018-07-07T03:08:19.737Z,16.80
2018-07-07T03:10:47.838Z,16.90
2018-07-07T03:13:15.991Z,16.90
2018-07-07T03:15:44.062Z,16.80
2018-07-07T03:18:12.160Z,16.80
2018-07-07T03:20:40.271Z,16.70
2018-07-07T03:23:08.351Z,16.70
2018-07-07T03:25:36.479Z,16.70
2018-07-07T03:28:04.852Z,16.70
2018-07-07T03:30:32.929Z,16.60
2018-07-07T03:33:01.044Z,16.50
2018-07-07T03:35:29.163Z,16.50
2018-07-07T03:37:57.306Z,16.50
2018-07-07T03:40:25.427Z,16.50
2018-07-07T03:42:53.554Z,16.60
2018-07-07T03:45:21.666Z,16.60
2018-07-07T03:47:49.779Z,16.50
2018-07-07T03:52:45.715Z,16.40
2018-07-07T03:55:13.839Z,16.40
2018-07-07T03:57:41.965Z,16.40
2018-07-07T04:00:10.098Z,16.40
2018-07-07T04:02:38.215Z,16.30
2018-07-07T04:05:06.331Z,16.30
2018-07-07T04:07:34.439Z,16.20
2018-07-07T04:10:02.559Z,16.10
2018-07-07T04:12:30.675Z,16.10
2018-07-07T04:14:58.788Z,16.10
2018-07-07T04:17:26.908Z,16.10
2018-07-07T04:19:55.019Z,16.10
2018-07-07T04:22:23.129Z,16.20
2018-07-07T04:24:51.239Z,16.30
2018-07-07T04:27:19.383Z,16.10
2018-07-07T04:29:47.495Z,16.10
2018-07-07T04:32:15.611Z,16.00
2018-07-07T04:34:43.731Z,15.90
2018-07-07T04:37:11.848Z,15.80
2018-07-07T04:39:39.947Z,15.80
2018-07-07T04:42:08.063Z,15.80
2018-07-07T04:44:36.207Z,15.70
2018-07-07T04:47:04.323Z,15.60
2018-07-07T04:49:32.455Z,15.70
2018-07-07T04:52:00.571Z,15.60
2018-07-07T04:54:28.684Z,15.60
2018-07-07T04:56:57.403Z,15.50
2018-07-07T04:59:25.522Z,15.50
2018-07-07T05:01:53.634Z,15.60
2018-07-07T05:04:21.763Z,15.60
2018-07-07T05:06:49.866Z,15.70
2018-07-07T05:11:45.864Z,15.80
2018-07-07T05:14:13.980Z,15.90
2018-07-07T05:16:42.091Z,15.90
2018-07-07T05:19:10.251Z,15.80
2018-07-07T05:21:38.368Z,15.90
2018-07-07T05:24:06.510Z,15.90
2018-07-07T05:26:34.631Z,16.00
2018-07-07T05:29:02.729Z,16.10
2018-07-07T05:31:30.826Z,16.10
2018-07-07T05:33:58.920Z,16.00
2018-07-07T05:36:27.039Z,16.00
2018-07-07T05:38:55.151Z,16.00
2018-07-07T05:41:23.255Z,16.00
2018-07-07T05:43:51.383Z,16.10
2018-07-07T05:46:19.482Z,16.20
2018-07-07T05:48:47.590Z,16.20
2018-07-07T05:53:43.515Z,16.30
2018-07-07T05:56:11.630Z,16.40
2018-07-07T05:58:39.739Z,16.40
2018-07-07T06:01:07.838Z,16.50
2018-07-07T06:03:35.946Z,16.70
2018-07-07T06:06:04.323Z,16.80
2018-07-07T06:08:32.455Z,16.90
2018-07-07T06:11:00.575Z,17.00
2018-07-07T06:13:28.679Z,16.90
2018-07-07T06:15:56.812Z,16.80
2018-07-07T06:18:25.073Z,16.90
2018-07-07T06:20:53.059Z,17.00
2018-07-07T06:23:21.169Z,17.00
2018-07-07T06:25:49.274Z,17.10
2018-07-07T06:28:17.379Z,17.10
2018-07-07T06:30:45.502Z,17.10
2018-07-07T06:33:13.607Z,17.10
2018-07-07T06:35:41.720Z,17.10
2018-07-07T06:38:09.873Z,17.20
2018-07-07T06:40:38.007Z,17.30
2018-07-07T06:43:16.295Z,17.40
2018-07-07T06:45:44.382Z,17.40
2018-07-07T06:48:12.487Z,17.50
2018-07-07T06:50:40.628Z,17.60
2018-07-07T06:53:08.750Z,17.60
2018-07-07T06:55:36.859Z,17.50
2018-07-07T06:58:05.048Z,17.60
2018-07-07T07:00:33.144Z,17.70
2018-07-07T07:03:01.263Z,17.80
2018-07-07T07:05:29.359Z,17.80
2018-07-07T07:10:25.390Z,17.90
2018-07-07T07:12:53.585Z,17.90
2018-07-07T07:15:21.711Z,17.80
2018-07-07T07:17:49.835Z,18.00
2018-07-07T07:20:17.944Z,18.10
2018-07-07T07:22:46.055Z,18.20
2018-07-07T07:25:14.194Z,18.30
2018-07-07T07:27:42.303Z,18.50
2018-07-07T07:30:10.460Z,18.60
2018-07-07T07:32:38.574Z,18.50
2018-07-07T07:35:06.690Z,18.60
2018-07-07T07:37:34.831Z,18.60
2018-07-07T07:40:02.933Z,18.90
2018-07-07T07:42:31.126Z,19.00
2018-07-07T07:44:59.240Z,19.10
2018-07-07T07:47:27.356Z,19.30
2018-07-07T07:49:55.447Z,19.40
2018-07-07T07:52:23.572Z,19.50
2018-07-07T07:54:51.679Z,19.70
2018-07-07T07:57:19.794Z,19.60
2018-07-07T07:59:47.927Z,19.70
2018-07-07T08:02:16.040Z,19.80
2018-07-07T08:04:44.159Z,19.80
2018-07-07T08:07:12.251Z,19.80
2018-07-07T08:09:40.335Z,19.70
2018-07-07T08:12:08.435Z,19.40
2018-07-07T08:14:36.589Z,19.40
2018-07-07T08:17:04.731Z,19.70
2018-07-07T08:19:32.842Z,20.00
2018-07-07T08:22:00.966Z,20.20
2018-07-07T08:24:29.079Z,20.30
2018-07-07T08:26:57.184Z,20.40
2018-07-07T08:29:25.340Z,20.50
2018-07-07T08:31:53.419Z,20.50
2018-07-07T08:34:21.597Z,20.60
2018-07-07T08:36:49.675Z,20.80
2018-07-07T08:39:17.782Z,20.90
2018-07-07T08:41:45.953Z,21.30
2018-07-07T08:44:13.999Z,21.40
2018-07-07T08:46:42.091Z,21.70
2018-07-07T08:49:10.195Z,21.70
2018-07-07T08:51:38.314Z,21.80
2018-07-07T08:54:06.419Z,21.70
2018-07-07T08:56:34.535Z,21.60
2018-07-07T08:59:02.620Z,21.60
2018-07-07T09:01:30.796Z,21.70
2018-07-07T09:03:58.901Z,21.70
2018-07-07T09:06:32.742Z,21.80
2018-07-07T09:09:00.852Z,22.00
2018-07-07T09:11:28.956Z,22.30
2018-07-07T09:13:57.055Z,22.70
2018-07-07T09:16:25.147Z,22.70
2018-07-07T09:18:53.280Z,22.70
2018-07-07T09:21:21.372Z,22.70
2018-07-07T09:23:49.459Z,22.90
2018-07-07T09:26:17.558Z,23.30
2018-07-07T09:28:45.660Z,23.60
2018-07-07T09:31:13.764Z,24.20
2018-07-07T09:33:41.870Z,24.60
2018-07-07T09:36:10.005Z,24.40
2018-07-07T09:38:38.106Z,24.60
2018-07-07T09:41:06.224Z,24.90
2018-07-07T09:43:34.327Z,25.20
2018-07-07T09:46:04.519Z,25.90
2018-07-07T09:48:32.619Z,26.50
2018-07-07T09:51:00.718Z,26.30
2018-07-07T09:53:28.815Z,26.00
2018-07-07T09:55:56.943Z,26.10
2018-07-07T09:58:25.039Z,26.40
2018-07-07T10:00:53.127Z,26.50
2018-07-07T10:03:21.246Z,26.60
2018-07-07T10:05:49.342Z,26.70
2018-07-07T10:08:17.443Z,27.20
2018-07-07T10:10:45.544Z,27.50
2018-07-07T10:13:13.651Z,27.80
2018-07-07T10:15:41.742Z,28.30
2018-07-07T10:18:09.831Z,28.90
2018-07-07T10:20:37.972Z,28.70
2018-07-07T10:23:06.042Z,28.50
2018-07-07T10:25:34.138Z,29.20
2018-07-07T10:28:02.239Z,29.20
2018-07-07T10:30:30.334Z,29.60
2018-07-07T10:32:58.439Z,29.30
2018-07-07T10:35:26.571Z,29.40
2018-07-07T10:37:54.726Z,29.70
2018-07-07T10:40:22.831Z,29.90
2018-07-07T10:42:50.927Z,30.10
2018-07-07T10:45:19.019Z,30.40
2018-07-07T10:47:47.107Z,29.30
2018-07-07T10:50:15.207Z,29.50
2018-07-07T10:52:43.318Z,29.90
2018-07-07T10:55:11.419Z,30.10
2018-07-07T10:57:39.546Z,30.80
2018-07-07T11:00:08.212Z,31.10
2018-07-07T11:02:36.370Z,31.70
2018-07-07T11:05:04.559Z,32.60
2018-07-07T11:07:32.660Z,33.00
2018-07-07T11:10:00.771Z,33.70
2018-07-07T11:12:28.859Z,33.00
2018-07-07T11:14:56.963Z,32.20
2018-07-07T11:17:25.059Z,32.30
2018-07-07T11:19:53.179Z,33.20
2018-07-07T11:22:21.267Z,32.80
2018-07-07T11:24:49.359Z,32.70
2018-07-07T11:32:13.103Z,32.20
2018-07-07T11:34:41.198Z,32.70
2018-07-07T11:39:55.684Z,33.20
2018-07-07T11:42:23.867Z,33.70
2018-07-07T11:44:51.890Z,33.90
2018-07-07T11:47:20.015Z,34.40
2018-07-07T11:52:15.947Z,34.50
2018-07-07T11:54:44.050Z,34.50
2018-07-07T11:57:12.172Z,34.10
2018-07-07T11:59:40.276Z,34.80
2018-07-07T12:02:08.390Z,34.90
2018-07-07T12:04:36.669Z,35.70
2018-07-07T12:07:04.623Z,36.90
2018-07-07T12:09:32.727Z,36.40
2018-07-07T12:12:00.826Z,35.00
2018-07-07T12:14:28.927Z,35.10
2018-07-07T12:16:57.035Z,35.20
2018-07-07T12:19:25.166Z,36.30
2018-07-07T12:21:53.291Z,36.00
2018-07-07T12:24:21.380Z,35.80
2018-07-07T12:26:49.473Z,35.80
2018-07-07T12:29:17.571Z,35.40
2018-07-07T12:31:45.709Z,35.90
2018-07-07T12:34:13.812Z,35.00
2018-07-07T12:39:09.743Z,36.40
2018-07-07T12:44:13.671Z,35.40
2018-07-07T12:46:41.807Z,35.20
2018-07-07T12:49:09.971Z,35.20
2018-07-07T12:51:38.114Z,35.40
2018-07-07T12:54:06.252Z,35.30
2018-07-07T12:56:34.378Z,35.50
2018-07-07T12:59:02.526Z,35.60
2018-07-07T13:01:30.715Z,35.40
2018-07-07T13:03:58.840Z,35.40
2018-07-07T13:06:26.975Z,37.10
2018-07-07T13:08:55.106Z,36.80
2018-07-07T13:11:23.253Z,36.90
2018-07-07T13:13:51.400Z,36.80
2018-07-07T13:16:19.547Z,35.50
2018-07-07T13:18:47.690Z,36.10
2018-07-07T13:21:15.835Z,36.10
2018-07-07T13:23:43.990Z,36.90
2018-07-07T13:26:12.126Z,36.20
2018-07-07T13:28:40.274Z,36.90
2018-07-07T13:31:08.442Z,36.20
2018-07-07T13:33:36.603Z,35.60
2018-07-07T13:36:04.749Z,35.10
2018-07-07T13:38:32.875Z,35.50
2018-07-07T13:41:01.026Z,35.80
2018-07-07T13:43:29.134Z,35.90
2018-07-07T13:45:57.230Z,36.30
2018-07-07T13:48:25.374Z,35.80
2018-07-07T13:50:53.482Z,34.50
2018-07-07T13:53:21.622Z,33.40
2018-07-07T13:55:49.750Z,33.40
2018-07-07T13:58:17.871Z,32.50
2018-07-07T14:00:46.324Z,32.50
2018-07-07T14:03:14.426Z,32.20
2018-07-07T14:05:42.526Z,31.90
2018-07-07T14:08:10.618Z,31.30
2018-07-07T14:10:38.720Z,31.30
2018-07-07T14:13:06.860Z,31.50
2018-07-07T14:15:34.966Z,31.00
2018-07-07T14:18:03.080Z,31.20
2018-07-07T14:20:31.187Z,31.50
2018-07-07T14:22:59.288Z,31.60
2018-07-07T14:25:27.403Z,31.20
2018-07-07T14:27:55.502Z,30.90
2018-07-07T14:30:23.611Z,30.70
2018-07-07T14:32:51.723Z,30.20
2018-07-07T14:35:19.873Z,30.20
2018-07-07T14:37:47.978Z,30.30
2018-07-07T14:40:16.076Z,30.30
2018-07-07T14:42:44.176Z,29.60
2018-07-07T14:45:22.261Z,29.50
2018-07-07T14:47:50.385Z,29.80
2018-07-07T14:50:18.527Z,29.80
2018-07-07T14:52:46.694Z,29.60
2018-07-07T14:55:16.149Z,29.80
2018-07-07T14:57:44.283Z,29.50
2018-07-07T15:00:12.427Z,29.60
2018-07-07T15:02:40.578Z,29.40
2018-07-07T15:05:08.731Z,29.30
2018-07-07T15:07:36.867Z,29.20
2018-07-07T15:10:05.114Z,29.40
2018-07-07T15:12:33.158Z,29.00
2018-07-07T15:15:01.295Z,29.10
2018-07-07T15:17:29.456Z,29.10
2018-07-07T15:19:57.598Z,29.00
2018-07-07T15:22:25.767Z,28.80
2018-07-07T15:24:53.958Z,28.90
2018-07-07T15:27:22.110Z,28.40
2018-07-07T15:29:50.246Z,28.20
2018-07-07T15:32:18.381Z,28.30
2018-07-07T15:34:46.527Z,28.60
2018-07-07T15:37:14.671Z,28.30
2018-07-07T15:39:42.847Z,27.90
2018-07-07T15:42:11.021Z,28.00
2018-07-07T15:44:39.131Z,28.00
2018-07-07T15:47:07.302Z,28.30
2018-07-07T15:49:35.439Z,28.20
2018-07-07T15:52:03.603Z,28.10
2018-07-07T15:54:31.768Z,28.10
2018-07-07T15:56:59.911Z,27.70
2018-07-07T15:59:28.047Z,27.50
2018-07-07T16:01:56.187Z,27.20
2018-07-07T16:04:24.979Z,27.10
2018-07-07T16:06:53.120Z,27.10
2018-07-07T16:09:21.275Z,27.00
2018-07-07T16:11:49.428Z,27.10
2018-07-07T16:14:17.566Z,27.20
2018-07-07T16:16:45.987Z,27.20
2018-07-07T16:19:14.138Z,27.30
2018-07-07T16:21:42.548Z,27.30
2018-07-07T16:24:10.639Z,27.30
2018-07-07T16:26:38.774Z,26.80
2018-07-07T16:29:06.957Z,26.70
2018-07-07T16:31:38.242Z,26.50
2018-07-07T16:34:06.419Z,26.30
2018-07-07T16:36:34.558Z,26.20
2018-07-07T16:39:02.915Z,26.40
2018-07-07T16:41:31.070Z,26.60
2018-07-07T16:43:59.223Z,26.70
2018-07-07T16:46:27.419Z,26.50
2018-07-07T16:48:55.538Z,26.50
2018-07-07T16:51:23.975Z,26.60
2018-07-07T16:53:52.154Z,26.70
2018-07-07T16:56:20.263Z,26.70
2018-07-07T16:58:48.374Z,26.50
2018-07-07T17:01:16.488Z,26.40
2018-07-07T17:03:44.615Z,26.50
2018-07-07T17:06:12.760Z,26.20
2018-07-07T17:08:40.883Z,25.90
2018-07-07T17:11:08.986Z,25.90
2018-07-07T17:13:37.920Z,25.90
2018-07-07T17:16:06.569Z,26.00
2018-07-07T17:18:34.686Z,26.00
2018-07-07T17:21:02.831Z,26.00
2018-07-07T17:23:30.936Z,25.90
2018-07-07T17:25:59.070Z,25.90
2018-07-07T17:28:27.197Z,25.90
2018-07-07T17:30:57.506Z,25.70
2018-07-07T17:33:25.631Z,25.80
2018-07-07T17:35:53.730Z,25.60
2018-07-07T17:38:21.843Z,25.70
2018-07-07T17:40:50.974Z,25.70
2018-07-07T17:43:19.294Z,25.70
2018-07-07T17:45:48.627Z,25.80
2018-07-07T17:48:17.664Z,25.70
2018-07-07T17:53:19.232Z,25.40
2018-07-07T17:55:51.608Z,25.30
2018-07-07T17:58:21.776Z,25.30
2018-07-07T18:00:53.155Z,25.10
2018-07-07T18:03:22.177Z,25.10
2018-07-07T18:05:50.331Z,25.00
2018-07-07T18:10:46.325Z,25.00
2018-07-07T18:13:17.030Z,25.00
2018-07-07T18:15:46.361Z,25.00
2018-07-07T18:18:18.255Z,25.00
2018-07-07T18:20:49.178Z,25.00
2018-07-07T18:23:20.143Z,24.90
2018-07-07T18:25:50.230Z,24.70
2018-07-07T18:28:20.258Z,24.50
2018-07-07T18:30:51.287Z,24.40
2018-07-07T18:33:24.784Z,24.30
2018-07-07T18:35:53.684Z,24.20
2018-07-07T18:38:25.500Z,24.20
2018-07-07T18:40:55.490Z,24.10
2018-07-07T18:43:25.884Z,23.90
2018-07-07T18:48:28.007Z,23.90
2018-07-07T18:51:00.090Z,23.80
2018-07-07T18:53:30.323Z,23.70
2018-07-07T18:56:01.415Z,23.70
2018-07-07T18:58:33.005Z,23.60
2018-07-07T19:01:03.485Z,23.50
2018-07-07T19:03:34.371Z,23.40
2018-07-07T19:06:06.220Z,23.40
2018-07-07T19:08:38.926Z,23.30
2018-07-07T19:11:09.012Z,23.20
2018-07-07T19:13:39.339Z,23.10
2018-07-07T19:16:10.762Z,23.00
2018-07-07T19:18:43.317Z,22.90
2018-07-07T19:21:17.412Z,22.80
2018-07-07T19:23:48.197Z,22.70
2018-07-07T19:26:17.987Z,22.70
2018-07-07T19:28:47.969Z,22.70
2018-07-07T19:31:19.356Z,22.60
2018-07-07T19:33:49.039Z,22.40
2018-07-07T19:36:18.989Z,22.40
2018-07-07T19:38:49.814Z,22.30
2018-07-07T19:41:19.874Z,22.10
2018-07-07T19:43:48.945Z,22.20
2018-07-07T19:46:19.122Z,22.20
2018-07-07T19:48:52.227Z,22.10
2018-07-07T19:51:20.366Z,22.10
2018-07-07T19:53:48.515Z,21.90
2018-07-07T19:56:16.635Z,21.80
2018-07-07T19:58:44.771Z,21.70
2018-07-07T20:01:12.904Z,21.70
2018-07-07T20:03:41.030Z,21.60
2018-07-07T20:06:09.191Z,21.50
2018-07-07T20:08:37.331Z,21.50
2018-07-07T20:11:05.478Z,21.40
2018-07-07T20:13:33.642Z,21.30
2018-07-07T20:16:09.190Z,21.30
2018-07-07T20:19:18.685Z,21.20
2018-07-07T20:21:48.627Z,21.10
2018-07-07T20:24:17.764Z,21.00
2018-07-07T20:26:46.262Z,20.80
2018-07-07T20:29:14.358Z,20.80
2018-07-07T20:31:42.479Z,20.70
2018-07-07T20:34:10.591Z,20.60
2018-07-07T20:36:38.687Z,20.50
2018-07-07T20:39:06.795Z,20.50
2018-07-07T20:41:34.918Z,20.40
